Time;durP1;ratioP1;P1;durP2;ratioP2;P2;SDS_P1;SDS_P2;PMS_P1;PMS_P2;Temp;Humidity;BMP_temperature;BMP_pressure;BME280_temperature;BME280_humidity;BME280_pressure;Samples;Min_cycle;Max_cycle;Signal;HPM_P1;HPM_P2
2023/07/20 00:00:50;;;;;;;3.47;1.50;;;;;;;19.10;100.00;98522.59;5009630;28;20044;-73
2023/07/20 00:03:18;;;;;;;4.15;1.23;;;;;;;19.13;100.00;98538.56;5007095;28;20028;-73
2023/07/20 00:05:44;;;;;;;14.63;1.70;;;;;;;19.11;100.00;98547.03;5020290;28;20029;-73
2023/07/20 00:08:10;;;;;;;4.43;1.30;;;;;;;19.01;100.00;98539.56;5023693;28;20766;-73
2023/07/20 00:10:35;;;;;;;3.42;1.40;;;;;;;19.01;100.00;98541.47;5011362;28;20052;-73
2023/07/20 00:13:00;;;;;;;6.50;1.20;;;;;;;18.98;100.00;98550.25;5009018;28;20030;-73
2023/07/20 00:15:25;;;;;;;4.03;1.42;;;;;;;19.04;100.00;98540.94;5027120;28;20079;-73
2023/07/20 00:17:51;;;;;;;2.55;1.30;;;;;;;19.10;100.00;98561.00;5017092;28;20056;-73
2023/07/20 00:20:16;;;;;;;2.20;1.27;;;;;;;19.11;100.00;98563.50;5025893;28;20036;-74
2023/07/20 00:22:42;;;;;;;2.22;1.33;;;;;;;18.96;100.00;98539.53;5023593;28;20040;-73
2023/07/20 00:25:07;;;;;;;2.95;1.30;;;;;;;19.02;100.00;98554.09;5009980;28;20097;-73
2023/07/20 00:27:33;;;;;;;2.85;1.40;;;;;;;18.94;100.00;98552.69;5008498;28;20074;-73
2023/07/20 00:29:58;;;;;;;1.73;0.98;;;;;;;18.95;100.00;98559.00;5051964;22;20056;-54
2023/07/20 00:32:23;;;;;;;2.72;1.15;;;;;;;18.89;100.00;98571.84;5013973;28;20125;-54
2023/07/20 00:34:49;;;;;;;2.03;1.20;;;;;;;18.79;100.00;98558.88;5008517;28;20033;-54
2023/07/20 00:37:14;;;;;;;4.25;1.35;;;;;;;18.75;100.00;98565.16;5022163;28;20029;-54
2023/07/20 00:39:39;;;;;;;2.25;1.00;;;;;;;18.61;100.00;98571.03;4998736;28;20018;-54
2023/07/20 00:42:05;;;;;;;4.30;1.52;;;;;;;18.56;100.00;98570.19;5012638;28;20123;-54
2023/07/20 00:44:30;;;;;;;3.03;1.33;;;;;;;18.47;100.00;98567.09;5015008;28;20028;-54
2023/07/20 00:46:56;;;;;;;3.65;1.33;;;;;;;18.38;100.00;98566.72;5006642;28;20075;-54
2023/07/20 00:49:22;;;;;;;2.90;1.38;;;;;;;18.30;100.00;98560.91;5022859;28;20025;-54
2023/07/20 00:51:48;;;;;;;1.95;1.20;;;;;;;18.21;100.00;98568.78;5024952;28;20033;-54
2023/07/20 00:54:15;;;;;;;2.78;1.10;;;;;;;18.08;100.00;98561.81;5002066;28;20054;-54
2023/07/20 00:56:40;;;;;;;2.40;1.50;;;;;;;18.00;100.00;98565.00;5007675;28;20057;-54
2023/07/20 00:59:06;;;;;;;1.80;1.00;;;;;;;18.00;100.00;98570.47;5007707;28;20485;-54
2023/07/20 01:01:32;;;;;;;2.22;1.27;;;;;;;17.96;100.00;98569.31;5029741;28;20029;-54
2023/07/20 01:03:57;;;;;;;2.80;1.15;;;;;;;17.87;100.00;98566.22;5029447;28;20489;-54
2023/07/20 01:06:41;;;;;;;1.63;0.95;;;;;;;17.80;100.00;98576.53;5012817;28;20489;-54
2023/07/20 01:09:15;;;;;;;3.15;1.20;;;;;;;17.74;100.00;98574.81;5029503;28;20393;-54
2023/07/20 01:11:52;;;;;;;4.53;1.33;;;;;;;17.72;100.00;98577.78;5012596;28;20077;-54
2023/07/20 01:14:18;;;;;;;2.10;1.27;;;;;;;17.61;100.00;98584.22;5010672;28;20030;-54
2023/07/20 01:16:44;;;;;;;3.65;1.10;;;;;;;17.64;100.00;98578.25;5011728;28;20473;-54
2023/07/20 01:19:09;;;;;;;4.88;1.30;;;;;;;17.56;100.00;98580.59;5025708;28;20026;-54
2023/07/20 01:21:44;;;;;;;4.65;1.35;;;;;;;17.49;100.00;98580.78;5011983;28;20440;-54
2023/07/20 01:24:45;;;;;;;2.67;1.20;;;;;;;17.45;100.00;98568.72;5025496;28;20021;-54
2023/07/20 01:27:20;;;;;;;5.32;1.35;;;;;;;17.42;100.00;98580.97;5011018;28;20115;-54
2023/07/20 01:30:14;;;;;;;2.50;1.08;;;;;;;17.26;100.00;98577.19;5024425;28;20022;-54
2023/07/20 01:32:42;;;;;;;3.25;1.10;;;;;;;17.23;100.00;98580.44;5026719;28;20054;-53
2023/07/20 01:35:10;;;;;;;3.25;1.33;;;;;;;17.11;100.00;98590.66;5009883;28;20584;-54
2023/07/20 01:37:38;;;;;;;5.23;1.37;;;;;;;17.06;100.00;98582.38;5028973;28;20037;-54
2023/07/20 01:40:03;;;;;;;5.45;1.40;;;;;;;17.01;100.00;98579.56;5027295;28;20034;-54
2023/07/20 01:42:29;;;;;;;1.98;1.27;;;;;;;17.01;100.00;98585.88;5021966;28;20122;-54
2023/07/20 01:44:55;;;;;;;3.88;1.30;;;;;;;16.93;100.00;98582.72;5009570;28;20029;-54
2023/07/20 01:47:20;;;;;;;1.58;0.90;;;;;;;16.86;100.00;98582.91;5011844;28;20026;-54
2023/07/20 01:49:46;;;;;;;2.67;1.30;;;;;;;16.79;100.00;98588.53;5007452;28;20734;-54
2023/07/20 01:52:15;;;;;;;3.42;1.02;;;;;;;16.72;100.00;98581.56;5013503;28;20030;-54
2023/07/20 01:54:40;;;;;;;1.48;1.10;;;;;;;16.64;100.00;98589.09;5014259;28;20022;-54
2023/07/20 01:57:06;;;;;;;4.50;1.23;;;;;;;16.53;100.00;98592.72;5032262;28;20026;-54
2023/07/20 01:59:31;;;;;;;3.70;1.30;;;;;;;16.49;100.00;98593.47;5028569;28;20022;-54
2023/07/20 02:01:56;;;;;;;3.25;1.15;;;;;;;16.41;100.00;98592.78;5010471;28;20025;-54
2023/07/20 02:04:22;;;;;;;2.20;1.20;;;;;;;16.39;100.00;98585.91;5011740;28;20402;-54
2023/07/20 02:06:47;;;;;;;2.28;1.30;;;;;;;16.33;100.00;98582.28;5011296;28;20385;-54
2023/07/20 02:09:12;;;;;;;3.10;1.20;;;;;;;16.30;100.00;98588.22;5011406;28;20030;-54
2023/07/20 02:11:37;;;;;;;2.67;0.98;;;;;;;16.18;100.00;98588.28;5013603;28;20026;-54
2023/07/20 02:14:03;;;;;;;4.10;1.38;;;;;;;16.14;100.00;98589.84;5011555;28;20553;-54
2023/07/20 02:16:28;;;;;;;2.45;1.30;;;;;;;16.12;100.00;98582.97;5008063;28;20497;-54
2023/07/20 02:18:56;;;;;;;2.90;1.30;;;;;;;16.08;100.00;98587.25;5010051;28;20065;-53
2023/07/20 02:21:22;;;;;;;4.40;1.40;;;;;;;16.00;100.00;98586.56;5027520;28;20037;-54
2023/07/20 02:23:47;;;;;;;4.25;1.08;;;;;;;15.94;100.00;98589.47;5011673;28;20030;-54
2023/07/20 02:26:13;;;;;;;5.15;1.52;;;;;;;15.79;100.00;98589.97;5011170;28;20504;-54
2023/07/20 02:28:38;;;;;;;5.82;1.45;;;;;;;15.77;100.00;98598.41;5012869;28;20107;-54
2023/07/20 02:31:03;;;;;;;4.53;1.40;;;;;;;15.72;100.00;98594.78;5006783;28;20029;-54
2023/07/20 02:33:29;;;;;;;4.50;1.10;;;;;;;15.61;100.00;98598.31;5012171;28;20029;-54
2023/07/20 02:35:55;;;;;;;2.63;1.10;;;;;;;15.54;100.00;98598.44;5010846;28;20022;-53
2023/07/20 02:38:20;;;;;;;3.78;1.27;;;;;;;15.49;100.00;98596.44;5028288;28;20022;-53
2023/07/20 02:40:45;;;;;;;2.83;1.13;;;;;;;15.48;100.00;98602.97;5009116;28;20377;-54
2023/07/20 02:43:11;;;;;;;2.65;1.05;;;;;;;15.37;100.00;98609.25;5028411;28;20473;-54
2023/07/20 02:45:40;;;;;;;3.85;1.20;;;;;;;15.36;100.00;98599.44;5005673;28;20372;-54
2023/07/20 02:48:07;;;;;;;1.70;1.08;;;;;;;15.30;100.00;98600.38;5011997;28;20033;-54
2023/07/20 02:50:35;;;;;;;5.22;1.10;;;;;;;15.24;100.00;98606.78;5010940;28;20037;-54
2023/07/20 02:53:00;;;;;;;3.67;1.10;;;;;;;15.21;100.00;98605.34;5012226;28;20366;-54
2023/07/20 02:55:26;;;;;;;1.90;1.23;;;;;;;15.21;100.00;98607.25;5008302;28;20030;-54
2023/07/20 02:57:51;;;;;;;3.17;1.25;;;;;;;15.31;100.00;98604.78;5028162;28;20018;-53
2023/07/20 03:00:19;;;;;;;2.70;1.38;;;;;;;15.29;100.00;98612.34;5020623;28;20030;-54
2023/07/20 03:02:47;;;;;;;3.55;1.10;;;;;;;15.23;100.00;98607.84;5007741;28;20496;-53
2023/07/20 03:05:13;;;;;;;5.68;1.30;;;;;;;15.13;100.00;98609.28;5007426;28;20178;-54
2023/07/20 03:07:38;;;;;;;3.22;1.08;;;;;;;15.10;100.00;98614.38;5012017;28;20022;-55
2023/07/20 03:10:07;;;;;;;6.95;1.50;;;;;;;15.08;100.00;98617.34;5009806;28;20076;-54
2023/07/20 03:12:34;;;;;;;3.55;1.30;;;;;;;15.09;100.00;98621.72;5026389;28;20030;-54
2023/07/20 03:14:59;;;;;;;2.10;1.20;;;;;;;15.06;100.00;98621.34;5008544;28;20030;-54
2023/07/20 03:17:24;;;;;;;2.78;1.20;;;;;;;15.00;100.00;98623.13;5005799;28;20029;-54
2023/07/20 03:19:50;;;;;;;4.28;1.48;;;;;;;14.97;100.00;98622.78;5004706;28;20021;-53
2023/07/20 03:22:15;;;;;;;5.63;1.50;;;;;;;14.97;100.00;98626.34;5008495;28;20083;-54
2023/07/20 03:24:41;;;;;;;2.30;1.15;;;;;;;15.01;100.00;98635.72;5023520;28;20032;-54
2023/07/20 03:27:06;;;;;;;2.25;1.20;;;;;;;14.96;100.00;98632.88;5011722;28;20072;-54
2023/07/20 03:29:33;;;;;;;2.20;1.15;;;;;;;14.94;100.00;98635.00;5010885;28;20025;-54
2023/07/20 03:31:59;;;;;;;3.67;1.35;;;;;;;14.85;100.00;98634.47;5005542;28;20500;-53
2023/07/20 03:34:25;;;;;;;3.08;1.27;;;;;;;14.98;100.00;98638.06;5023869;28;20394;-54
2023/07/20 03:36:50;;;;;;;5.05;1.30;;;;;;;14.92;100.00;98642.56;5008170;28;20141;-53
2023/07/20 03:39:15;;;;;;;4.13;1.77;;;;;;;14.85;100.00;98639.09;5008838;28;20022;-53
2023/07/20 03:41:41;;;;;;;3.03;1.15;;;;;;;14.82;100.00;98631.41;5003724;28;20030;-54
2023/07/20 03:44:06;;;;;;;5.32;1.50;;;;;;;14.80;100.00;98639.84;5008401;28;21273;-53
2023/07/20 03:46:33;;;;;;;3.15;1.30;;;;;;;14.83;100.00;98639.38;5010283;28;20422;-53
2023/07/20 03:48:59;;;;;;;3.83;1.27;;;;;;;14.84;100.00;98634.75;5020905;28;20026;-54
2023/07/20 03:51:24;;;;;;;2.83;1.20;;;;;;;14.77;100.00;98640.28;5009648;28;20618;-54
2023/07/20 03:53:50;;;;;;;3.17;1.25;;;;;;;14.75;100.00;98639.72;5009399;28;20029;-53
2023/07/20 03:56:16;;;;;;;5.93;1.60;;;;;;;14.82;100.00;98643.13;5001490;28;20033;-54
2023/07/20 03:58:41;;;;;;;3.08;1.40;;;;;;;14.84;100.00;98645.63;5008470;28;20053;-57
2023/07/20 04:01:07;;;;;;;5.00;1.70;;;;;;;14.88;100.00;98646.81;5009758;28;20708;-56
2023/07/20 04:03:33;;;;;;;4.90;1.55;;;;;;;14.95;100.00;98633.09;5019531;28;20021;-57
2023/07/20 04:05:58;;;;;;;6.88;1.60;;;;;;;15.05;100.00;98647.78;5005249;28;20493;-63
2023/07/20 04:08:24;;;;;;;2.55;1.45;;;;;;;15.08;100.00;98655.47;5021789;28;20033;-62
2023/07/20 04:10:50;;;;;;;2.83;1.70;;;;;;;15.03;100.00;98651.81;5010676;28;20045;-61
2023/07/20 04:13:15;;;;;;;2.35;1.30;;;;;;;15.07;100.00;98653.81;5017046;28;20022;-62
2023/07/20 04:15:42;;;;;;;2.45;1.40;;;;;;;15.13;100.00;98665.69;5009747;28;20048;-61
2023/07/20 04:18:07;;;;;;;3.80;1.42;;;;;;;15.22;100.00;98657.97;5011628;28;20026;-62
2023/07/20 04:20:33;;;;;;;3.72;1.50;;;;;;;15.26;100.00;98656.44;5028105;28;20113;-62
2023/07/20 04:22:59;;;;;;;3.85;1.60;;;;;;;15.36;100.00;98650.41;5027333;28;20030;-62
2023/07/20 04:25:24;;;;;;;7.30;1.58;;;;;;;15.42;100.00;98655.72;5011132;28;20087;-61
2023/07/20 04:27:51;;;;;;;3.55;1.90;;;;;;;15.47;100.00;98660.47;5014451;28;20053;-62
2023/07/20 04:30:20;;;;;;;3.20;1.42;;;;;;;15.50;100.00;98662.69;5014170;28;20026;-62
2023/07/20 04:32:46;;;;;;;4.50;1.83;;;;;;;15.54;100.00;98658.44;5014541;28;20069;-62
2023/07/20 04:35:16;;;;;;;4.60;1.65;;;;;;;15.60;100.00;98662.09;5010701;28;20493;-62
2023/07/20 04:37:45;;;;;;;2.10;1.38;;;;;;;15.65;100.00;98659.50;5029407;28;20024;-61
2023/07/20 04:40:13;;;;;;;4.13;1.55;;;;;;;15.69;100.00;98663.41;5014871;28;20018;-62
2023/07/20 04:42:39;;;;;;;5.03;1.85;;;;;;;15.71;100.00;98662.09;5027302;28;20030;-62
2023/07/20 04:45:04;;;;;;;4.40;1.50;;;;;;;15.79;100.00;98658.19;5023721;28;20385;-62
2023/07/20 04:47:30;;;;;;;3.03;1.67;;;;;;;15.82;100.00;98665.88;5011217;28;20028;-61
2023/07/20 04:49:55;;;;;;;2.97;1.90;;;;;;;15.83;100.00;98664.81;5009621;28;20018;-61
2023/07/20 04:52:21;;;;;;;7.45;1.90;;;;;;;15.86;100.00;98667.06;5029865;28;20080;-61
2023/07/20 04:54:46;;;;;;;3.30;2.17;;;;;;;15.87;100.00;98660.53;5010258;28;20030;-62
2023/07/20 04:57:13;;;;;;;5.05;2.40;;;;;;;15.90;100.00;98654.59;5025665;28;20026;-62
2023/07/20 04:59:38;;;;;;;4.10;2.25;;;;;;;15.92;100.00;98660.63;5004657;28;20065;-62
2023/07/20 05:02:04;;;;;;;4.15;2.30;;;;;;;15.97;100.00;98655.28;5029622;28;20493;-61
2023/07/20 05:04:29;;;;;;;6.18;2.88;;;;;;;16.13;100.00;98661.03;5023992;28;20033;-62
2023/07/20 05:06:55;;;;;;;3.13;2.00;;;;;;;16.26;100.00;98660.75;5027099;28;20030;-62
2023/07/20 05:09:20;;;;;;;4.82;2.10;;;;;;;16.42;100.00;98662.69;5033075;28;20024;-62
2023/07/20 05:11:47;;;;;;;4.13;2.38;;;;;;;16.59;100.00;98659.19;5014566;28;20029;-62
2023/07/20 05:14:13;;;;;;;4.82;1.95;;;;;;;16.78;100.00;98662.53;5012775;28;20597;-63
2023/07/20 05:16:38;;;;;;;4.50;1.70;;;;;;;16.92;100.00;98661.13;5012118;28;20132;-62
2023/07/20 05:19:03;;;;;;;5.00;1.95;;;;;;;17.03;100.00;98671.19;5025714;28;20014;-63
2023/07/20 05:21:29;;;;;;;4.90;1.70;;;;;;;17.02;100.00;98669.50;5009400;28;20034;-62
2023/07/20 05:23:55;;;;;;;3.92;1.70;;;;;;;17.10;100.00;98665.53;5013863;28;20109;-62
2023/07/20 05:26:21;;;;;;;4.60;1.85;;;;;;;17.08;100.00;98663.06;5011142;28;20053;-62
2023/07/20 05:28:46;;;;;;;5.43;1.65;;;;;;;17.29;100.00;98660.63;5021222;28;20393;-62
2023/07/20 05:31:12;;;;;;;5.55;1.95;;;;;;;17.45;100.00;98664.44;5013200;28;20108;-62
2023/07/20 05:33:38;;;;;;;8.75;1.92;;;;;;;17.45;100.00;98653.50;5027508;28;20057;-62
2023/07/20 05:36:04;;;;;;;3.55;1.70;;;;;;;17.55;100.00;98664.53;5028185;28;20061;-62
2023/07/20 05:38:29;;;;;;;3.00;1.80;;;;;;;17.50;100.00;98650.81;5021073;28;20153;-61
2023/07/20 05:41:00;;;;;;;5.70;1.63;;;;;;;17.61;100.00;98660.81;5013692;28;20049;-62
2023/07/20 05:43:25;;;;;;;5.28;1.65;;;;;;;17.78;100.00;98662.69;5012025;28;20504;-62
2023/07/20 05:45:51;;;;;;;3.35;1.90;;;;;;;17.91;100.00;98656.84;5011879;28;20026;-61
2023/07/20 05:48:17;;;;;;;3.45;1.52;;;;;;;18.00;100.00;98660.81;5010178;28;20022;-62
2023/07/20 05:50:45;;;;;;;5.97;1.83;;;;;;;18.22;100.00;98654.50;5011004;28;20030;-62
2023/07/20 05:53:11;;;;;;;6.72;1.65;;;;;;;18.49;100.00;98655.31;5009627;28;20022;-62
2023/07/20 05:55:38;;;;;;;5.55;1.60;;;;;;;18.66;100.00;98660.69;5029100;28;20031;-57
2023/07/20 05:58:04;;;;;;;3.90;1.52;;;;;;;18.84;100.00;98659.53;5011825;28;20030;-57
2023/07/20 06:00:29;;;;;;;3.13;1.60;;;;;;;19.11;100.00;98659.47;5005930;28;20026;-57
2023/07/20 06:02:55;;;;;;;3.92;1.63;;;;;;;19.08;100.00;98645.47;5024157;28;20033;-57
2023/07/20 06:05:22;;;;;;;7.22;1.90;;;;;;;19.05;100.00;98658.59;5022788;28;20072;-57
2023/07/20 06:07:47;;;;;;;3.42;1.23;;;;;;;19.27;100.00;98668.63;5030160;28;20030;-57
2023/07/20 06:10:12;;;;;;;5.22;1.20;;;;;;;19.29;100.00;98657.41;4997579;28;20193;-57
2023/07/20 06:12:38;;;;;;;8.70;1.40;;;;;;;19.44;100.00;98658.34;5004459;28;20037;-57
2023/07/20 06:15:05;;;;;;;2.03;1.42;;;;;;;19.51;100.00;98665.50;5022093;28;20396;-57
2023/07/20 06:17:31;;;;;;;3.22;1.58;;;;;;;19.74;100.00;98665.13;5002796;28;20027;-57
2023/07/20 06:19:56;;;;;;;7.63;1.77;;;;;;;20.04;100.00;98663.59;5011052;28;20025;-57
2023/07/20 06:22:21;;;;;;;5.50;1.52;;;;;;;20.23;100.00;98670.28;5012181;28;20038;-57
2023/07/20 06:24:47;;;;;;;6.97;1.65;;;;;;;19.97;100.00;98657.53;5028138;28;20030;-57
2023/07/20 06:27:12;;;;;;;5.10;1.60;;;;;;;19.76;100.00;98668.44;5020105;28;20100;-57
2023/07/20 06:29:38;;;;;;;8.52;1.65;;;;;;;20.02;100.00;98660.31;5030846;22;20070;-49
2023/07/20 06:32:04;;;;;;;2.67;1.30;;;;;;;20.52;100.00;98659.63;5057064;28;20059;-54
2023/07/20 06:34:30;;;;;;;6.55;1.73;;;;;;;20.55;100.00;98659.09;5060361;28;20020;-54
2023/07/20 06:36:55;;;;;;;6.80;1.45;;;;;;;20.69;100.00;98656.66;5043279;28;20165;-54
2023/07/20 06:39:22;;;;;;;4.07;1.20;;;;;;;21.60;100.00;98663.25;5034999;28;20036;-55
2023/07/20 06:41:47;;;;;;;4.97;1.83;;;;;;;22.34;100.00;98660.78;5036269;28;20167;-55
2023/07/20 06:44:13;;;;;;;5.97;1.83;;;;;;;23.45;100.00;98649.22;5028259;28;20464;-55
2023/07/20 06:46:38;;;;;;;3.97;1.58;;;;;;;24.92;91.54;98655.94;5035705;28;20029;-55
2023/07/20 06:49:07;;;;;;;5.63;1.42;;;;;;;27.26;77.67;98652.25;5042876;28;20381;-55
2023/07/20 06:51:32;;;;;;;4.68;1.73;;;;;;;28.30;69.37;98651.09;5050234;28;20415;-55
2023/07/20 06:53:58;;;;;;;5.47;1.45;;;;;;;29.64;62.74;98657.63;5041243;28;20094;-56
2023/07/20 06:56:30;;;;;;;3.03;1.38;;;;;;;31.21;57.78;98646.31;5139741;27;20406;-56
2023/07/20 06:58:55;;;;;;;4.15;1.10;;;;;;;32.53;51.52;98644.38;5088252;28;20032;-56
2023/07/20 07:01:21;;;;;;;3.05;1.13;;;;;;;31.97;53.03;98649.78;5086427;28;20016;-56
2023/07/20 07:03:46;;;;;;;2.28;0.90;;;;;;;33.32;49.18;98646.66;5091315;28;20110;-55
2023/07/20 07:06:12;;;;;;;2.65;0.88;;;;;;;33.29;47.13;98638.97;5087264;28;20031;-56
2023/07/20 07:08:37;;;;;;;3.85;0.98;;;;;;;31.99;48.65;98641.84;5086775;28;20590;-53
2023/07/20 07:11:02;;;;;;;3.38;1.05;;;;;;;32.37;47.94;98643.44;5107339;28;20458;-53
2023/07/20 07:13:28;;;;;;;2.15;0.93;;;;;;;33.50;46.84;98643.53;5089372;28;20021;-53
2023/07/20 07:15:53;;;;;;;3.70;0.98;;;;;;;34.97;44.39;98649.91;5082721;28;20028;-53
2023/07/20 07:18:20;;;;;;;4.47;1.38;;;;;;;35.83;42.78;98635.50;5089246;28;20148;-53
2023/07/20 07:20:51;;;;;;;5.72;1.00;;;;;;;36.94;39.89;98639.19;5088185;28;20112;-53
2023/07/20 07:23:16;;;;;;;6.55;0.90;;;;;;;36.19;41.30;98642.56;5086681;28;20051;-53
2023/07/20 07:25:42;;;;;;;3.30;1.10;;;;;;;36.13;39.33;98637.63;5079983;28;20059;-53
2023/07/20 07:28:07;;;;;;;2.20;1.00;;;;;;;36.50;39.22;98634.13;5084161;28;20123;-54
2023/07/20 07:30:32;;;;;;;5.03;1.30;;;;;;;37.42;38.23;98633.72;5087748;28;20055;-54
2023/07/20 07:32:58;;;;;;;3.53;1.13;;;;;;;35.30;39.91;98635.34;5089985;28;20020;-54
2023/07/20 07:35:23;;;;;;;5.18;1.00;;;;;;;35.45;40.85;98630.78;5084444;28;20065;-54
2023/07/20 07:37:48;;;;;;;2.40;1.00;;;;;;;37.42;38.71;98625.28;5095387;28;20027;-54
2023/07/20 07:40:14;;;;;;;2.55;1.10;;;;;;;35.93;39.41;98620.78;5088191;28;20039;-54
2023/07/20 07:42:39;;;;;;;2.45;1.00;;;;;;;37.15;38.50;98619.72;5082702;28;20046;-54
2023/07/20 07:45:05;;;;;;;4.97;1.30;;;;;;;37.09;37.49;98624.09;5090267;28;20023;-54
2023/07/20 07:47:31;;;;;;;2.83;0.75;;;;;;;37.13;38.54;98619.31;5099056;28;20076;-54
2023/07/20 07:49:57;;;;;;;2.97;0.80;;;;;;;38.82;35.65;98621.50;5088159;28;20168;-55
2023/07/20 07:52:22;;;;;;;3.25;1.02;;;;;;;38.44;34.82;98632.25;5087349;28;20382;-55
2023/07/20 07:54:48;;;;;;;1.73;0.85;;;;;;;37.70;35.77;98634.03;5089911;28;20016;-55
2023/07/20 07:57:13;;;;;;;2.30;0.98;;;;;;;38.11;35.73;98625.50;5087400;28;20035;-54
2023/07/20 07:59:39;;;;;;;2.10;0.90;;;;;;;37.33;36.47;98621.94;5086269;28;20024;-54
2023/07/20 08:02:05;;;;;;;3.30;1.35;;;;;;;37.42;36.96;98633.72;5081061;28;20580;-54
2023/07/20 08:04:31;;;;;;;3.63;1.05;;;;;;;38.01;35.93;98623.41;5084345;28;20028;-54
2023/07/20 08:06:56;;;;;;;2.72;1.00;;;;;;;36.53;36.51;98624.94;5082786;28;20220;-54
2023/07/20 08:09:22;;;;;;;2.42;0.90;;;;;;;32.03;41.83;98639.16;5076004;28;20032;-55
2023/07/20 08:11:48;;;;;;;5.38;0.90;;;;;;;28.14;48.05;98640.44;5069173;28;20020;-54
2023/07/20 08:14:13;;;;;;;3.15;1.00;;;;;;;28.46;49.56;98627.25;5069544;28;20024;-54
2023/07/20 08:16:39;;;;;;;2.47;1.00;;;;;;;32.52;44.13;98623.16;5072412;28;20084;-54
2023/07/20 08:19:04;;;;;;;5.10;1.00;;;;;;;34.46;40.23;98617.09;5063134;28;20486;-55
2023/07/20 08:21:29;;;;;;;1.92;1.05;;;;;;;32.99;41.77;98624.50;5072970;28;20505;-47
2023/07/20 08:23:55;;;;;;;2.40;1.25;;;;;;;31.14;44.77;98629.28;5076402;28;20076;-47
2023/07/20 08:26:22;;;;;;;3.47;1.30;;;;;;;34.81;41.07;98621.88;5070500;28;20048;-47
2023/07/20 08:28:48;;;;;;;3.50;0.90;;;;;;;32.27;42.49;98618.72;5073764;28;20092;-47
2023/07/20 08:31:13;;;;;;;5.25;1.13;;;;;;;31.66;43.59;98611.13;5072540;28;20463;-47
2023/07/20 08:33:38;;;;;;;3.63;0.90;;;;;;;31.06;45.06;98632.16;5072633;28;20186;-47
2023/07/20 08:36:05;;;;;;;3.35;1.10;;;;;;;33.42;41.44;98619.28;5066340;28;20544;-47
2023/07/20 08:38:31;;;;;;;1.65;0.80;;;;;;;30.61;43.60;98621.69;5075591;28;20399;-47
2023/07/20 08:40:57;;;;;;;5.28;1.17;;;;;;;30.24;43.36;98629.84;5073436;28;20021;-47
2023/07/20 08:43:26;;;;;;;2.85;1.10;;;;;;;33.35;40.56;98611.47;5073699;28;20035;-47
2023/07/20 08:45:54;;;;;;;1.15;0.95;;;;;;;36.61;36.42;98613.41;5064462;28;20045;-48
2023/07/20 08:48:20;;;;;;;3.80;0.90;;;;;;;37.77;34.66;98627.63;5071384;28;20031;-47
2023/07/20 08:50:49;;;;;;;4.93;0.65;;;;;;;39.48;32.53;98623.38;5071544;28;20035;-47
2023/07/20 08:53:14;;;;;;;1.50;1.00;;;;;;;36.07;33.63;98620.25;5071385;28;20024;-48
2023/07/20 08:55:43;;;;;;;1.08;0.70;;;;;;;38.35;33.10;98620.44;5069656;28;20036;-47
2023/07/20 08:58:12;;;;;;;2.17;0.80;;;;;;;39.23;30.70;98615.63;5088413;28;20029;-48
2023/07/20 09:00:38;;;;;;;2.03;1.02;;;;;;;39.33;30.96;98608.38;5072854;28;20084;-48
2023/07/20 09:03:04;;;;;;;1.63;0.90;;;;;;;36.98;32.56;98620.31;5068731;28;20028;-48
2023/07/20 09:05:29;;;;;;;1.92;1.02;;;;;;;34.21;36.47;98620.13;5063894;28;20035;-48
2023/07/20 09:07:55;;;;;;;1.50;0.73;;;;;;;37.28;34.42;98618.28;5068420;28;20626;-49
2023/07/20 09:10:21;;;;;;;1.58;1.00;;;;;;;39.06;31.54;98616.38;5069140;28;20032;-48
2023/07/20 09:12:47;;;;;;;1.05;0.70;;;;;;;39.22;29.57;98616.81;5064076;28;20024;-48
2023/07/20 09:15:12;;;;;;;1.50;0.70;;;;;;;40.07;29.34;98615.34;5078403;28;20032;-49
2023/07/20 09:17:38;;;;;;;2.20;0.88;;;;;;;39.86;29.67;98616.97;5066096;28;20028;-48
2023/07/20 09:20:10;;;;;;;2.70;0.60;;;;;;;38.63;29.71;98613.34;5070982;28;20399;-49
2023/07/20 09:22:39;;;;;;;1.90;0.60;;;;;;;38.77;29.18;98616.25;5074415;28;20035;-48
2023/07/20 09:25:07;;;;;;;0.82;0.80;;;;;;;38.83;30.07;98611.00;5064639;28;20130;-48
2023/07/20 09:27:38;;;;;;;4.30;1.10;;;;;;;36.03;32.96;98610.91;5074077;28;20483;-48
2023/07/20 09:30:04;;;;;;;2.00;0.88;;;;;;;38.55;30.61;98621.00;5088859;28;20042;-48
2023/07/20 09:32:29;;;;;;;1.58;1.00;;;;;;;35.91;32.23;98614.72;5063448;28;20119;-48
2023/07/20 09:34:55;;;;;;;1.73;0.80;;;;;;;36.92;31.99;98605.75;5072544;28;20174;-48
2023/07/20 09:37:22;;;;;;;1.75;0.80;;;;;;;37.08;31.80;98601.94;5074994;28;20053;-47
2023/07/20 09:39:48;;;;;;;1.80;0.70;;;;;;;39.57;30.70;98601.97;5068955;28;20417;-47
2023/07/20 09:42:15;;;;;;;1.08;0.65;;;;;;;41.21;28.34;98610.56;5068990;28;20398;-48
2023/07/20 09:44:43;;;;;;;1.67;0.70;;;;;;;39.90;28.46;98613.31;5069404;28;20383;-48
2023/07/20 09:47:09;;;;;;;2.95;0.80;;;;;;;41.59;29.00;98606.69;5067195;28;20161;-48
2023/07/20 09:49:42;;;;;;;1.85;0.70;;;;;;;38.95;30.32;98616.34;5073967;28;20176;-48
2023/07/20 09:52:09;;;;;;;1.33;0.70;;;;;;;38.99;28.87;98617.19;5071304;28;20399;-48
2023/07/20 09:54:38;;;;;;;1.42;0.85;;;;;;;40.01;29.52;98614.94;5071613;28;20019;-48
2023/07/20 09:57:05;;;;;;;3.70;0.90;;;;;;;41.05;28.70;98619.56;5074740;28;20184;-49
2023/07/20 09:59:30;;;;;;;1.30;0.73;;;;;;;41.84;27.43;98605.69;5072853;28;20028;-49
2023/07/20 10:01:59;;;;;;;3.17;0.98;;;;;;;40.90;27.15;98607.47;5065869;28;20088;-48
2023/07/20 10:04:26;;;;;;;3.33;0.90;;;;;;;38.82;29.27;98610.19;5069195;28;20039;-49
2023/07/20 10:06:54;;;;;;;3.38;0.75;;;;;;;37.09;29.63;98604.34;5065105;28;20099;-48
2023/07/20 10:09:24;;;;;;;2.38;0.80;;;;;;;36.22;30.24;98607.19;5070030;28;20023;-48
2023/07/20 10:11:50;;;;;;;1.58;0.68;;;;;;;38.57;28.99;98602.44;5068900;28;20020;-48
2023/07/20 10:14:23;;;;;;;2.42;0.85;;;;;;;40.02;27.89;98596.72;5060968;28;20055;-49
2023/07/20 10:16:57;;;;;;;0.80;0.50;;;;;;;41.77;27.91;98594.41;5081999;28;20031;-48
2023/07/20 10:19:30;;;;;;;1.67;0.80;;;;;;;39.68;27.10;98601.97;5070332;28;20088;-48
2023/07/20 10:22:13;;;;;;;2.50;0.70;;;;;;;35.42;30.62;98601.38;5069797;28;20172;-49
2023/07/20 10:24:40;;;;;;;1.45;0.82;;;;;;;34.05;32.37;98597.66;5070307;28;20059;-48
2023/07/20 10:27:05;;;;;;;1.70;0.70;;;;;;;36.90;31.29;98596.84;5073617;28;20020;-48
2023/07/20 10:29:32;;;;;;;2.83;1.00;;;;;;;39.33;29.71;98588.56;5069707;28;20024;-48
2023/07/20 10:31:58;;;;;;;2.30;0.90;;;;;;;36.63;31.50;98587.69;5071804;28;20023;-48
2023/07/20 10:34:24;;;;;;;1.50;0.80;;;;;;;33.31;34.32;98594.56;5070155;28;20364;-48
2023/07/20 10:36:54;;;;;;;3.45;0.80;;;;;;;35.65;32.78;98589.34;5071329;28;20358;-48
2023/07/20 10:39:27;;;;;;;3.53;0.90;;;;;;;39.04;29.11;98579.19;5073160;28;20386;-48
2023/07/20 10:42:10;;;;;;;1.80;0.73;;;;;;;40.64;27.65;98583.22;5074416;28;20484;-48
2023/07/20 10:44:42;;;;;;;1.58;0.50;;;;;;;42.45;26.33;98580.38;5067556;28;20379;-48
2023/07/20 10:47:12;;;;;;;0.73;0.50;;;;;;;40.16;26.65;98581.72;5067789;28;20016;-49
2023/07/20 10:49:58;;;;;;;1.35;0.80;;;;;;;40.45;26.29;98570.34;5072107;28;20447;-48
2023/07/20 10:52:23;;;;;;;1.55;0.70;;;;;;;42.66;26.60;98584.19;5072037;28;20077;-48
2023/07/20 10:54:49;;;;;;;1.02;0.60;;;;;;;43.79;25.88;98573.66;5077480;28;20016;-49
2023/07/20 10:57:29;;;;;;;1.75;0.68;;;;;;;44.23;25.32;98575.34;5086880;28;20032;-49
2023/07/20 11:00:09;;;;;;;2.20;0.55;;;;;;;44.48;24.61;98574.06;5073342;28;20024;-49
2023/07/20 11:02:45;;;;;;;0.80;0.57;;;;;;;44.17;24.56;98562.81;5072820;28;20073;-49
2023/07/20 11:05:39;;;;;;;1.55;0.70;;;;;;;44.31;23.64;98558.88;5071591;28;20074;-49
2023/07/20 11:08:09;;;;;;;2.78;0.80;;;;;;;44.28;24.30;98554.88;5071003;28;20031;-49
2023/07/20 11:10:35;;;;;;;3.15;0.77;;;;;;;39.92;26.98;98563.53;5069521;28;20099;-49
2023/07/20 11:13:25;;;;;;;3.53;0.90;;;;;;;35.66;30.43;98566.47;5069740;28;20042;-49
2023/07/20 11:15:56;;;;;;;1.77;0.60;;;;;;;37.75;29.49;98562.25;5065505;28;20459;-49
2023/07/20 11:18:25;;;;;;;2.20;0.80;;;;;;;38.52;27.70;98559.59;5067537;28;20048;-49
2023/07/20 11:20:52;;;;;;;1.48;0.70;;;;;;;37.68;26.96;98551.75;5069038;28;20139;-54
2023/07/20 11:23:19;;;;;;;2.15;0.70;;;;;;;38.39;27.66;98559.09;5069404;28;20051;-55
2023/07/20 11:25:44;;;;;;;4.10;0.88;;;;;;;40.40;25.64;98551.72;5069628;28;20115;-54
2023/07/20 11:28:10;;;;;;;1.00;0.63;;;;;;;41.28;25.61;98562.28;5065358;28;20114;-54